createdAt,value
2018-10-12T00:00:50.748Z,100654.98
2018-10-12T00:03:21.041Z,100648.17
2018-10-12T00:05:51.426Z,100653.55
2018-10-12T00:08:21.280Z,100652.13
2018-10-12T00:10:51.534Z,100654.86
2018-10-12T00:13:21.486Z,100659.08
2018-10-12T00:15:51.369Z,100661.46
2018-10-12T00:18:21.206Z,100659.29
2018-10-12T00:20:51.504Z,100649.69
2018-10-12T00:23:21.328Z,100653.30
2018-10-12T00:25:51.511Z,100658.59
2018-10-12T00:28:21.375Z,100648.72
2018-10-12T00:30:51.197Z,100654.48
2018-10-12T00:33:21.592Z,100650.53
2018-10-12T00:35:51.350Z,100662.98
2018-10-12T00:38:21.116Z,100665.16
2018-10-12T00:40:50.997Z,100659.16
2018-10-12T00:43:20.776Z,100657.48
2018-10-12T00:45:51.436Z,100667.17
2018-10-12T00:48:21.200Z,100669.24
2018-10-12T00:50:50.942Z,100663.00
2018-10-12T00:53:20.669Z,100671.01
2018-10-12T00:55:50.358Z,100674.03
2018-10-12T00:58:20.054Z,100675.35
2018-10-12T01:00:49.941Z,100673.30
2018-10-12T01:03:20.166Z,100677.09
2018-10-12T01:05:49.999Z,100681.78
2018-10-12T01:08:19.728Z,100686.92
2018-10-12T01:10:49.490Z,100689.93
2018-10-12T01:13:20.035Z,100684.66
2018-10-12T01:15:49.795Z,100692.92
2018-10-12T01:18:19.544Z,100688.82
2018-10-12T01:20:49.654Z,100691.80
2018-10-12T01:23:19.509Z,100682.39
2018-10-12T01:25:49.527Z,100687.59
2018-10-12T01:28:19.507Z,100683.55
2018-10-12T01:30:49.320Z,100693.70
2018-10-12T01:33:19.177Z,100698.52
2018-10-12T01:35:48.960Z,100715.44
2018-10-12T01:38:18.764Z,100720.45
2018-10-12T01:40:48.576Z,100710.67
2018-10-12T01:43:18.845Z,100710.09
2018-10-12T01:45:49.175Z,100709.97
2018-10-12T01:48:19.290Z,100706.69
2018-10-12T01:50:50.398Z,100706.78
2018-10-12T01:53:20.262Z,100709.53
2018-10-12T01:55:50.108Z,100698.37
2018-10-12T01:58:19.995Z,100700.31
2018-10-12T02:00:49.753Z,100701.75
2018-10-12T02:03:19.744Z,100702.44
2018-10-12T02:05:49.632Z,100715.00
2018-10-12T02:08:19.866Z,100713.70
2018-10-12T02:10:49.686Z,100707.56
2018-10-12T02:13:20.241Z,100720.53
2018-10-12T02:15:50.170Z,100718.61
2018-10-12T02:18:20.116Z,100715.25
2018-10-12T02:20:50.368Z,100705.36
2018-10-12T02:23:20.188Z,100708.30
2018-10-12T02:25:50.373Z,100707.15
2018-10-12T02:28:20.190Z,100717.31
2018-10-12T02:30:49.900Z,100717.88
2018-10-12T02:33:19.722Z,100724.66
2018-10-12T02:35:49.555Z,100725.78
2018-10-12T02:38:19.307Z,100735.05
2018-10-12T02:40:49.041Z,100738.52
2018-10-12T02:43:18.828Z,100744.06
2018-10-12T02:45:48.667Z,100748.87
2018-10-12T02:48:18.526Z,100754.21
2018-10-12T02:50:48.816Z,100749.92
2018-10-12T02:53:18.599Z,100749.45
2018-10-12T02:55:48.496Z,100746.30
2018-10-12T02:58:18.348Z,100754.03
2018-10-12T03:00:48.812Z,100748.97
2018-10-12T03:03:18.604Z,100755.36
2018-10-12T03:05:48.412Z,100764.42
2018-10-12T03:08:18.231Z,100764.48
2018-10-12T03:10:48.211Z,100770.94
2018-10-12T03:13:18.057Z,100782.31
2018-10-12T03:15:48.028Z,100788.67
2018-10-12T03:18:17.856Z,100785.88
2018-10-12T03:20:47.750Z,100782.02
2018-10-12T03:23:17.567Z,100793.39
2018-10-12T03:25:48.206Z,100790.42
2018-10-12T03:28:27.453Z,100800.05
2018-10-12T03:30:58.896Z,100801.94
2018-10-12T03:33:29.687Z,100806.20
2018-10-12T03:36:00.090Z,100811.33
2018-10-12T03:38:30.042Z,100821.08
2018-10-12T03:41:00.000Z,100819.02
2018-10-12T03:43:29.912Z,100814.23
2018-10-12T03:45:59.739Z,100814.89
2018-10-12T03:48:29.671Z,100818.22
2018-10-12T03:50:59.720Z,100823.68
2018-10-12T03:53:29.660Z,100822.39
2018-10-12T03:55:59.534Z,100821.72
2018-10-12T03:58:29.541Z,100821.35
2018-10-12T04:00:59.917Z,100830.91
2018-10-12T04:03:29.762Z,100839.12
2018-10-12T04:05:59.608Z,100840.83
2018-10-12T04:08:29.536Z,100838.31
2018-10-12T04:10:59.488Z,100842.56
2018-10-12T04:13:29.338Z,100844.34
2018-10-12T04:15:59.332Z,100854.34
2018-10-12T04:18:29.638Z,100862.65
2018-10-12T04:20:59.441Z,100856.90
2018-10-12T04:23:29.775Z,100859.16
2018-10-12T04:25:59.943Z,100866.64
2018-10-12T04:28:30.150Z,100872.40
2018-10-12T04:31:00.008Z,100878.21
2018-10-12T04:33:29.920Z,100892.59
2018-10-12T04:35:59.950Z,100888.55
2018-10-12T04:38:45.635Z,100887.41
2018-10-12T04:41:18.736Z,100871.98
2018-10-12T04:43:49.957Z,100878.27
2018-10-12T04:46:24.822Z,100886.68
2018-10-12T04:48:54.727Z,100879.59
2018-10-12T04:51:39.573Z,100873.71
2018-10-12T04:54:09.559Z,100867.35
2018-10-12T04:56:45.914Z,100868.67
2018-10-12T04:59:15.856Z,100879.52
2018-10-12T05:01:45.798Z,100889.31
2018-10-12T05:04:16.198Z,100901.72
2018-10-12T05:06:46.066Z,100917.52
2018-10-12T05:09:16.180Z,100918.84
2018-10-12T05:11:46.307Z,100919.41
2018-10-12T05:14:16.154Z,100922.03
2018-10-12T05:16:45.952Z,100923.75
2018-10-12T05:19:15.904Z,100928.36
2018-10-12T05:21:46.480Z,100933.12
2018-10-12T05:24:16.297Z,100935.73
2018-10-12T05:26:51.681Z,100937.44
2018-10-12T05:29:21.555Z,100936.88
2018-10-12T05:31:51.260Z,100944.75
2018-10-12T05:34:22.269Z,100954.34
2018-10-12T05:36:52.178Z,100958.93
2018-10-12T05:39:22.834Z,100973.48
2018-10-12T05:41:53.225Z,100977.95
2018-10-12T05:44:22.959Z,100983.23
2018-10-12T05:46:52.757Z,100989.48
2018-10-12T05:49:40.037Z,100988.99
2018-10-12T05:52:09.886Z,100995.80
2018-10-12T05:54:39.708Z,101005.91
2018-10-12T05:57:09.745Z,101004.66
2018-10-12T05:59:39.532Z,101010.16
2018-10-12T06:02:09.348Z,101014.56
2018-10-12T06:04:39.139Z,101016.72
2018-10-12T06:07:09.252Z,101006.98
2018-10-12T06:09:39.324Z,101021.91
2018-10-12T06:12:09.185Z,101021.67
2018-10-12T06:14:38.971Z,101031.53
2018-10-12T06:17:09.075Z,101030.50
2018-10-12T06:19:39.206Z,101029.02
2018-10-12T06:22:09.594Z,101036.16
2018-10-12T06:24:39.682Z,101036.16
2018-10-12T06:27:09.486Z,101036.90
2018-10-12T06:29:39.255Z,101046.56
2018-10-12T06:32:09.472Z,101046.66
2018-10-12T06:34:39.291Z,101048.55
2018-10-12T06:37:09.351Z,101053.34
2018-10-12T06:39:39.144Z,101058.12
2018-10-12T06:42:08.923Z,101057.55
2018-10-12T06:44:38.904Z,101059.06
2018-10-12T06:47:08.684Z,101054.95
2018-10-12T06:49:38.584Z,101064.05
2018-10-12T06:52:12.157Z,101066.14
2018-10-12T06:54:48.195Z,101066.23
2018-10-12T06:57:18.274Z,101066.71
2018-10-12T06:59:48.330Z,101074.13
2018-10-12T07:02:23.024Z,101077.50
2018-10-12T07:04:53.161Z,101076.95
2018-10-12T07:07:23.129Z,101078.54
2018-10-12T07:09:52.904Z,101085.85
2018-10-12T07:12:22.648Z,101086.80
2018-10-12T07:14:52.491Z,101088.58
2018-10-12T07:17:22.621Z,101092.83
2018-10-12T07:19:52.913Z,101097.78
2018-10-12T07:22:22.730Z,101098.73
2018-10-12T07:24:52.687Z,101104.28
2018-10-12T07:27:22.929Z,101107.19
2018-10-12T07:29:52.797Z,101106.81
2018-10-12T07:32:22.992Z,101117.73
2018-10-12T07:34:53.220Z,101124.67
2018-10-12T07:37:23.129Z,101125.64
2018-10-12T07:39:52.927Z,101134.28
2018-10-12T07:42:22.816Z,101134.95
2018-10-12T07:44:52.818Z,101134.08
2018-10-12T07:47:22.837Z,101130.60
2018-10-12T07:49:52.897Z,101132.67
2018-10-12T07:52:22.827Z,101132.02
2018-10-12T07:54:52.713Z,101140.09
2018-10-12T07:57:26.647Z,101142.88
2018-10-12T07:59:56.870Z,101150.20
2018-10-12T08:02:27.268Z,101148.52
2018-10-12T08:04:57.464Z,101150.78
2018-10-12T08:07:27.536Z,101151.52
2018-10-12T08:09:57.587Z,101148.88
2018-10-12T08:12:28.116Z,101142.08
2018-10-12T08:15:01.985Z,101143.36
2018-10-12T08:17:31.839Z,101142.88
2018-10-12T08:20:01.834Z,101149.17
2018-10-12T08:22:31.859Z,101150.72
2018-10-12T08:25:01.692Z,101151.19
2018-10-12T08:27:31.710Z,101154.08
2018-10-12T08:30:01.599Z,101154.83
2018-10-12T08:32:31.553Z,101163.06
2018-10-12T08:35:01.474Z,101164.69
2018-10-12T08:37:31.464Z,101174.00
2018-10-12T08:40:01.421Z,101169.98
2018-10-12T08:42:31.227Z,101170.95
2018-10-12T08:45:01.249Z,101183.77
2018-10-12T08:47:31.324Z,101182.81
2018-10-12T08:50:02.044Z,101178.92
2018-10-12T08:52:31.904Z,101183.98
2018-10-12T08:55:01.808Z,101185.58
2018-10-12T08:57:31.873Z,101190.08
2018-10-12T09:00:01.658Z,101196.20
2018-10-12T09:02:37.145Z,101189.51
2018-10-12T09:05:07.253Z,101206.76
2018-10-12T09:07:37.169Z,101196.08
2018-10-12T09:10:07.737Z,101196.88
2018-10-12T09:12:37.982Z,101208.08
2018-10-12T09:15:08.168Z,101210.23
2018-10-12T09:17:38.274Z,101206.55
2018-10-12T09:20:08.805Z,101204.05
2018-10-12T09:22:38.943Z,101209.06
2018-10-12T09:25:08.905Z,101203.50
2018-10-12T09:27:39.010Z,101204.34
2018-10-12T09:30:09.096Z,101200.38
2018-10-12T09:32:39.188Z,101207.13
2018-10-12T09:35:13.894Z,101207.59
2018-10-12T09:37:44.119Z,101211.54
2018-10-12T09:40:14.860Z,101206.83
2018-10-12T09:42:44.983Z,101202.23
2018-10-12T09:45:14.744Z,101198.52
2018-10-12T09:47:44.507Z,101194.89
2018-10-12T09:50:14.577Z,101195.78
2018-10-12T09:52:44.491Z,101201.41
2018-10-12T09:55:18.160Z,101207.45
2018-10-12T09:57:47.981Z,101204.56
2018-10-12T10:00:22.729Z,101195.06
2018-10-12T10:02:57.510Z,101195.98
2018-10-12T10:05:27.622Z,101197.09
2018-10-12T10:07:59.101Z,101193.48
2018-10-12T10:10:28.914Z,101193.22
2018-10-12T10:12:58.645Z,101191.66
2018-10-12T10:15:33.864Z,101188.66
2018-10-12T10:18:05.018Z,101191.46
2018-10-12T10:20:35.155Z,101189.58
2018-10-12T10:23:05.272Z,101192.30
2018-10-12T10:25:37.385Z,101191.72
2018-10-12T10:28:07.868Z,101195.70
2018-10-12T10:30:37.748Z,101192.94
2018-10-12T10:33:08.005Z,101194.62
2018-10-12T10:35:37.799Z,101183.80
2018-10-12T10:38:08.029Z,101191.19
2018-10-12T10:40:38.193Z,101179.97
2018-10-12T10:43:08.414Z,101175.64
2018-10-12T10:45:38.199Z,101175.13
2018-10-12T10:48:07.952Z,101178.61
2018-10-12T10:50:37.836Z,101168.11
2018-10-12T10:53:07.843Z,101160.38
2018-10-12T10:55:37.628Z,101153.98
2018-10-12T10:58:07.823Z,101153.95
2018-10-12T11:00:37.671Z,101150.07
2018-10-12T11:03:12.571Z,101147.27
2018-10-12T11:05:42.823Z,101146.29
2018-10-12T11:08:12.979Z,101136.22
2018-10-12T11:10:44.855Z,101152.04
2018-10-12T11:13:14.753Z,101154.13
2018-10-12T11:15:44.509Z,101147.64
2018-10-12T11:18:14.444Z,101142.59
2018-10-12T11:20:44.663Z,101144.56
2018-10-12T11:23:14.353Z,101147.57
2018-10-12T11:25:45.521Z,101146.73
2018-10-12T11:28:15.692Z,101148.90
2018-10-12T11:30:45.607Z,101149.13
2018-10-12T11:33:15.757Z,101147.91
2018-10-12T11:35:45.556Z,101143.22
2018-10-12T11:38:15.273Z,101143.82
2018-10-12T11:40:45.056Z,101135.53
2018-10-12T11:43:29.959Z,101139.47
2018-10-12T11:46:00.765Z,101131.17
2018-10-12T11:48:30.651Z,101128.34
2018-10-12T11:51:01.105Z,101129.81
2018-10-12T11:53:30.943Z,101122.51
2018-10-12T11:56:00.904Z,101131.81
2018-10-12T11:58:30.827Z,101132.93
2018-10-12T12:01:00.715Z,101127.00
2018-10-12T12:03:30.592Z,101125.33
2018-10-12T12:06:00.445Z,101128.52
2018-10-12T12:08:30.512Z,101126.93
2018-10-12T12:11:00.687Z,101131.84
2018-10-12T12:13:30.865Z,101128.11
2018-10-12T12:16:00.767Z,101125.30
2018-10-12T12:18:30.664Z,101131.07
2018-10-12T12:21:00.496Z,101123.92
2018-10-12T12:23:30.264Z,101115.23
2018-10-12T12:26:00.039Z,101110.06
2018-10-12T12:28:29.804Z,101113.48
2018-10-12T12:30:59.885Z,101115.92
2018-10-12T12:33:29.874Z,101118.09
2018-10-12T12:35:59.743Z,101117.89
2018-10-12T12:38:29.871Z,101112.19
2018-10-12T12:40:59.966Z,101117.39
2018-10-12T12:43:29.683Z,101118.34
2018-10-12T12:45:59.399Z,101113.68
2018-10-12T12:48:29.593Z,101116.69
2018-10-12T12:50:59.271Z,101119.83
2018-10-12T12:53:29.320Z,101111.16
2018-10-12T12:55:59.097Z,101111.98
2018-10-12T12:58:29.168Z,101111.55
2018-10-12T13:00:59.210Z,101108.63
2018-10-12T13:03:29.197Z,101108.01
2018-10-12T13:05:59.220Z,101115.72
2018-10-12T13:08:29.322Z,101108.81
2018-10-12T13:10:59.205Z,101110.95
2018-10-12T13:13:29.270Z,101103.98
2018-10-12T13:15:59.027Z,101109.81
2018-10-12T13:18:28.856Z,101110.99
2018-10-12T13:20:58.996Z,101111.55
2018-10-12T13:23:29.307Z,101124.38
2018-10-12T13:26:00.167Z,101118.82
2018-10-12T13:28:30.465Z,101125.48
2018-10-12T13:31:00.273Z,101119.16
2018-10-12T13:33:30.088Z,101114.06
2018-10-12T13:36:00.029Z,101111.50
2018-10-12T13:38:29.844Z,101120.67
2018-10-12T13:41:00.131Z,101119.68
2018-10-12T13:43:30.193Z,101127.23
2018-10-12T13:45:59.984Z,101117.30
2018-10-12T13:48:29.872Z,101122.23
2018-10-12T13:51:01.404Z,101114.56
2018-10-12T13:53:31.195Z,101122.73
2018-10-12T13:56:00.960Z,101119.52
2018-10-12T13:58:30.682Z,101125.89
2018-10-12T14:01:00.546Z,101124.39
2018-10-12T14:03:30.298Z,101124.01
2018-10-12T14:06:00.298Z,101122.06
2018-10-12T14:08:30.055Z,101122.63
2018-10-12T14:10:59.916Z,101123.52
2018-10-12T14:13:29.795Z,101118.78
2018-10-12T14:15:59.641Z,101119.95
2018-10-12T14:18:29.499Z,101127.23
2018-10-12T14:21:03.595Z,101124.80
2018-10-12T14:23:33.486Z,101131.46
2018-10-12T14:26:03.797Z,101135.17
2018-10-12T14:28:34.060Z,101133.69
2018-10-12T14:31:04.569Z,101132.40
2018-10-12T14:33:34.478Z,101128.23
2018-10-12T14:36:05.558Z,101127.36
2018-10-12T14:38:35.791Z,101124.45
2018-10-12T14:41:05.634Z,101125.11
2018-10-12T14:46:37.741Z,101129.56
2018-10-12T14:49:07.929Z,101131.23
2018-10-12T14:51:37.938Z,101130.01
2018-10-12T14:54:08.137Z,101127.12
2018-10-12T14:56:37.982Z,101130.34
2018-10-12T14:59:07.956Z,101122.80
2018-10-12T15:01:37.667Z,101128.86
2018-10-12T15:04:07.952Z,101119.18
2018-10-12T15:06:37.836Z,101117.56
2018-10-12T15:09:12.198Z,101113.95
2018-10-12T15:11:42.780Z,101122.30
2018-10-12T15:14:12.555Z,101119.44
2018-10-12T15:16:43.342Z,101122.45
2018-10-12T15:19:13.241Z,101118.31
2018-10-12T15:21:43.070Z,101119.10
2018-10-12T15:24:13.375Z,101126.96
2018-10-12T15:26:44.165Z,101124.05
2018-10-12T15:29:13.994Z,101126.88
2018-10-12T15:31:43.943Z,101134.21
2018-10-12T15:34:17.551Z,101121.98
2018-10-12T15:36:47.904Z,101127.06
2018-10-12T15:39:18.021Z,101127.59
2018-10-12T15:41:48.849Z,101128.77
2018-10-12T15:44:18.795Z,101127.53
2018-10-12T15:46:50.013Z,101127.12
2018-10-12T15:49:20.604Z,101129.51
2018-10-12T15:51:56.015Z,101128.23
2018-10-12T15:54:26.048Z,101129.06
2018-10-12T15:56:55.938Z,101134.54
2018-10-12T15:59:25.898Z,101133.80
2018-10-12T16:01:56.978Z,101134.13
2018-10-12T16:04:28.468Z,101135.05
2018-10-12T16:06:59.035Z,101136.52
2018-10-12T16:09:28.963Z,101136.36
2018-10-12T16:11:59.504Z,101130.77
2018-10-12T16:14:30.542Z,101129.94
2018-10-12T16:17:00.446Z,101132.72
2018-10-12T16:19:30.232Z,101136.03
2018-10-12T16:21:59.956Z,101129.15
2018-10-12T16:24:29.746Z,101133.44
2018-10-12T16:26:59.941Z,101139.67
2018-10-12T16:29:29.857Z,101131.55
2018-10-12T16:32:00.060Z,101137.83
2018-10-12T16:34:29.992Z,101146.94
2018-10-12T16:37:00.095Z,101145.75
2018-10-12T16:39:31.732Z,101149.89
2018-10-12T16:42:01.649Z,101155.63
2018-10-12T16:44:32.180Z,101148.28
2018-10-12T16:47:02.356Z,101156.38
2018-10-12T16:49:32.079Z,101156.95
2018-10-12T16:52:01.819Z,101156.66
2018-10-12T16:54:31.620Z,101160.99
2018-10-12T16:57:01.536Z,101159.77
2018-10-12T16:59:31.602Z,101164.13
2018-10-12T17:02:01.408Z,101159.25
2018-10-12T17:04:31.307Z,101154.64
2018-10-12T17:07:01.232Z,101159.91
2018-10-12T17:09:31.351Z,101158.67
2018-10-12T17:12:01.169Z,101168.66
2018-10-12T17:14:31.278Z,101166.80
2018-10-12T17:17:01.432Z,101170.38
2018-10-12T17:19:31.224Z,101174.91
2018-10-12T17:22:02.197Z,101174.88
2018-10-12T17:24:32.538Z,101184.52
2018-10-12T17:27:02.711Z,101184.38
2018-10-12T17:29:32.505Z,101181.59
2018-10-12T17:32:02.330Z,101180.57
2018-10-12T17:34:32.798Z,101190.01
2018-10-12T17:37:02.517Z,101194.69
2018-10-12T17:39:32.882Z,101198.25
2018-10-12T17:42:15.531Z,101197.45
2018-10-12T17:44:45.892Z,101204.02
2018-10-12T17:47:16.562Z,101201.96
2018-10-12T17:49:46.459Z,101197.58
2018-10-12T17:52:16.351Z,101208.08
2018-10-12T17:54:46.653Z,101199.52
2018-10-12T17:57:16.878Z,101200.77
2018-10-12T17:59:47.143Z,101197.38
2018-10-12T18:02:17.398Z,101205.80
2018-10-12T18:04:47.620Z,101201.66
2018-10-12T18:07:17.507Z,101205.02
2018-10-12T18:09:47.676Z,101204.39
2018-10-12T18:12:18.469Z,101199.84
2018-10-12T18:14:49.403Z,101204.27
2018-10-12T18:17:19.391Z,101210.14
2018-10-12T18:20:00.307Z,101204.73
2018-10-12T18:35:59.479Z,101203.34
2018-10-12T18:38:29.499Z,101203.33
2018-10-12T18:41:00.303Z,101200.39
2018-10-12T18:43:30.688Z,101204.20
2018-10-12T18:46:00.497Z,101210.16
2018-10-12T18:48:32.512Z,101213.34
2018-10-12T18:51:02.380Z,101225.14
2018-10-12T18:53:32.207Z,101221.28
2018-10-12T18:56:01.932Z,101218.29
2018-10-12T18:58:32.027Z,101222.63
2018-10-12T19:01:01.853Z,101225.53
2018-10-12T19:03:31.595Z,101220.11
2018-10-12T19:06:01.593Z,101220.69
2018-10-12T19:08:31.992Z,101226.36
2018-10-12T19:11:01.884Z,101224.78
2018-10-12T19:13:31.738Z,101224.92
2018-10-12T19:16:01.605Z,101227.32
2018-10-12T19:18:31.567Z,101230.10
2018-10-12T19:21:01.550Z,101235.40
2018-10-12T19:23:35.273Z,101248.09
2018-10-12T19:26:07.120Z,101247.97
2018-10-12T19:28:37.187Z,101248.56
2018-10-12T19:31:08.444Z,101244.95
2018-10-12T19:33:39.561Z,101240.16
2018-10-12T19:36:09.632Z,101246.19
2018-10-12T19:38:39.692Z,101241.86
2018-10-12T19:41:09.468Z,101248.95
2018-10-12T19:43:39.344Z,101247.75
2018-10-12T19:46:10.361Z,101254.39
2018-10-12T19:48:40.584Z,101249.31
2018-10-12T19:51:10.359Z,101253.19
2018-10-12T19:53:40.104Z,101252.35
2018-10-12T19:56:10.214Z,101257.42
2018-10-12T19:58:41.515Z,101257.04
2018-10-12T20:01:11.473Z,101261.36
2018-10-12T20:03:41.540Z,101263.79
2018-10-12T20:06:11.885Z,101268.84
2018-10-12T20:08:41.763Z,101267.52
2018-10-12T20:11:11.733Z,101269.22
2018-10-12T20:13:41.495Z,101268.73
2018-10-12T20:16:11.421Z,101263.82
2018-10-12T20:18:41.403Z,101270.91
2018-10-12T20:21:11.303Z,101274.30
2018-10-12T20:23:41.220Z,101278.50
2018-10-12T20:26:10.990Z,101275.98
2018-10-12T20:28:41.034Z,101271.30
2018-10-12T20:31:11.211Z,101275.62
2018-10-12T20:33:41.206Z,101275.27
2018-10-12T20:36:11.453Z,101278.85
2018-10-12T20:38:41.253Z,101279.24
2018-10-12T20:41:13.143Z,101280.92
2018-10-12T20:43:43.039Z,101285.26
2018-10-12T20:46:13.926Z,101276.47
2018-10-12T20:48:43.943Z,101283.09
2018-10-12T20:51:13.871Z,101281.64
2018-10-12T20:53:44.037Z,101283.31
2018-10-12T20:56:13.838Z,101281.37
2018-10-12T20:58:44.000Z,101282.34
2018-10-12T21:01:13.771Z,101281.41
2018-10-12T21:03:43.926Z,101289.33
2018-10-12T21:06:13.659Z,101288.13
2018-10-12T21:08:43.910Z,101284.91
2018-10-12T21:11:13.686Z,101283.09
2018-10-12T21:13:43.965Z,101281.02
2018-10-12T21:16:13.926Z,101285.48
2018-10-12T21:18:43.786Z,101289.09
2018-10-12T21:21:13.882Z,101276.95
2018-10-12T21:23:43.880Z,101279.53
2018-10-12T21:26:13.696Z,101287.38
2018-10-12T21:28:43.600Z,101285.25
2018-10-12T21:31:13.419Z,101284.67
2018-10-12T21:33:43.996Z,101278.45
2018-10-12T21:36:14.327Z,101283.14
2018-10-12T21:39:01.480Z,101286.05
2018-10-12T21:41:31.242Z,101282.43
2018-10-12T21:44:03.060Z,101279.66
2018-10-12T21:46:32.852Z,101281.34
2018-10-12T21:49:02.954Z,101283.09
2018-10-12T21:51:32.742Z,101281.34
2018-10-12T21:54:08.090Z,101288.78
2018-10-12T21:56:37.892Z,101284.83
2018-10-12T21:59:07.718Z,101282.91
2018-10-12T22:01:37.887Z,101286.14
2018-10-12T22:04:07.905Z,101287.58
2018-10-12T22:06:37.759Z,101280.11
2018-10-12T22:09:09.536Z,101277.55
2018-10-12T22:11:39.423Z,101281.80
2018-10-12T22:14:09.456Z,101286.97
2018-10-12T22:16:39.408Z,101287.31
2018-10-12T22:19:09.337Z,101273.92
2018-10-12T22:21:39.328Z,101280.21
2018-10-12T22:24:09.055Z,101282.26
2018-10-12T22:26:39.123Z,101281.77
2018-10-12T22:29:14.323Z,101281.53
2018-10-12T22:31:44.199Z,101274.33
2018-10-12T22:34:13.968Z,101268.68
2018-10-12T22:36:43.754Z,101268.04
2018-10-12T22:39:13.726Z,101265.25
2018-10-12T22:41:43.600Z,101267.42
2018-10-12T22:44:13.470Z,101258.62
2018-10-12T22:46:43.266Z,101262.09
2018-10-12T22:49:13.245Z,101259.48
2018-10-12T22:51:43.212Z,101253.70
2018-10-12T22:54:12.995Z,101254.05
2018-10-12T22:56:42.796Z,101253.19
2018-10-12T22:59:12.757Z,101259.81
2018-10-12T23:01:42.608Z,101250.46
2018-10-12T23:04:13.030Z,101251.97
2018-10-12T23:06:42.915Z,101251.72
2018-10-12T23:09:12.749Z,101252.55
2018-10-12T23:11:43.314Z,101250.99
2018-10-12T23:14:13.220Z,101249.22
2018-10-12T23:16:43.366Z,101249.66
2018-10-12T23:19:13.219Z,101258.27
2018-10-12T23:21:43.015Z,101243.09
2018-10-12T23:24:13.187Z,101242.34
2018-10-12T23:26:43.374Z,101249.54
2018-10-12T23:29:13.222Z,101241.67
2018-10-12T23:31:43.586Z,101240.20
2018-10-12T23:34:13.492Z,101241.60
2018-10-12T23:36:44.024Z,101239.48
2018-10-12T23:39:13.859Z,101239.31
2018-10-12T23:41:43.986Z,101239.17
2018-10-12T23:44:13.808Z,101238.50
2018-10-12T23:46:43.660Z,101242.55
2018-10-12T23:49:13.462Z,101236.05
2018-10-12T23:51:43.485Z,101232.52
2018-10-12T23:54:13.427Z,101237.31
2018-10-12T23:56:43.328Z,101235.81
2018-10-12T23:59:13.532Z,101234.43
